Aérodrome :
LOGIN :

S'inscrire | Disclaimer

   EN    FR    IT 

 










Légende :    VFR   VFR Marginal   IFR   IFR Intensif   IFR Très Intensif
Visi : 
Plafond : 
>= 8 km
>= 3000ft
5 à 8 km
1000 à 3000 ft
1500m à 5 km
500 à 1000 ft
800 à 1500m
200 à 500 ft
< 800m
< 200 ft
Symboles :   Orages  Brouillard  Fortes neiges  Fortes précipitations  Vent > 20 kt
SIGMETs :   Divers  Orages  Givrage  Turbulence  Onde Orograph.  Cendres Volcan.






- Altitude de l'aérodrome : 1187 ft


LIBV - Gioia del Colle Bari

DERNIER METAR :
  • 042055Z 16019KT 4500 BR BKN005 17/17 Q1008 RMK BKN VIS MIN 4500 WIND THR32 16017KT WIND THR14 16017KT YLO

METARs EXPIRÉS :
  • 041955Z 16015KT 5000 BR BKN007 17/16 Q1008 RMK BKN VIS MIN 5000 WIND THR32 16015KT WIND THR14 16014KT GRN
  • 041855Z 16018KT 8000 SCT009 17/16 Q1008 RMK SCT VIS MIN 8000 WIND THR32 16018KT WIND THR14 16017KT BLU

TAF TAF LIBV
Valide du 04 à 21h jusqu'au 05 à 06h UTC


042000Z 0421/0506 16018G30KT 5000 BR BKN005
BECMG 0423/0501 3000 BR
BECMG 0503/0505 1000 FG



MET'MAP, la Météo Aéronautique d'un coup d'oeil ! - Copyright ORBIFLY Décembre 2007 - Disclaimer

ORBIFLY MET'MAP TEAM :

Programmation & Développement : Alexandra Zaïnal
Sur une idée originale de : Baudouin d'Aumeries
Assistance à la programmation : Marc-Olivier Méhu
Soutien technique & logistique : Manuel Goepfert

Contact : metmap@orbifly.com




SOURCES & CREDITS :

   NOAA